Time;durP1;ratioP1;P1;durP2;ratioP2;P2;SDS_P1;SDS_P2;PMS_P1;PMS_P2;Temp;Humidity;BMP_temperature;BMP_pressure;BME280_temperature;BME280_humidity;BME280_pressure;Samples;Min_cycle;Max_cycle;Signal;HPM_P1;HPM_P2
2022/08/02 00:09:03;;;;;;;12.20;11.20;;;;;;;16.97;77.68;99369.70;431494;1273;148255;-64
2022/08/02 00:19:09;;;;;;;12.20;11.20;;;;;;;16.84;78.31;99368.24;430039;1273;144267;-65
2022/08/02 00:29:15;;;;;;;12.90;11.80;;;;;;;16.76;78.96;99374.92;432887;1274;143656;-65
2022/08/02 00:39:21;;;;;;;12.00;10.90;;;;;;;16.79;79.49;99377.52;432531;1273;143271;-64
2022/08/02 00:49:40;;;;;;;10.60;9.60;;;;;;;16.83;79.86;99380.66;430683;1274;143252;-65
2022/08/02 00:59:46;;;;;;;11.80;10.70;;;;;;;16.87;79.95;99387.77;430972;1274;142733;-65
2022/08/02 01:09:52;;;;;;;9.80;9.10;;;;;;;16.88;79.90;99396.86;429872;1273;142143;-65
2022/08/02 01:20:06;;;;;;;11.50;10.40;;;;;;;16.91;80.32;99409.48;429247;1274;165037;-64
2022/08/02 01:30:14;;;;;;;11.20;10.10;;;;;;;16.93;80.77;99414.98;430578;1273;142708;-66
2022/08/02 01:40:29;;;;;;;10.30;9.50;;;;;;;16.91;81.03;99414.61;432360;1274;142620;-66
2022/08/02 01:50:37;;;;;;;11.60;10.20;;;;;;;16.85;81.22;99405.14;430428;1273;150037;-64
2022/08/02 02:00:46;;;;;;;9.50;8.70;;;;;;;16.80;81.81;99400.98;434695;1274;143054;-65
2022/08/02 02:10:52;;;;;;;10.50;9.60;;;;;;;16.84;81.89;99396.88;430824;1274;143209;-64
2022/08/02 02:20:59;;;;;;;10.10;9.10;;;;;;;16.91;82.26;99388.93;431511;1274;144070;-63
2022/08/02 02:31:08;;;;;;;13.30;10.80;;;;;;;16.98;82.26;99399.66;430374;1274;185063;-65
2022/08/02 02:41:15;;;;;;;11.90;9.90;;;;;;;16.98;82.50;99394.36;430864;1274;142895;-65
2022/08/02 02:51:22;;;;;;;12.20;11.10;;;;;;;16.97;82.63;99385.45;429935;1273;143112;-65
2022/08/02 03:01:29;;;;;;;11.20;9.70;;;;;;;16.94;82.58;99391.02;432391;1274;143688;-65
2022/08/02 03:11:57;;;;;;;10.80;9.70;;;;;;;16.86;82.34;99397.38;430472;1274;146130;-67
2022/08/02 03:22:03;;;;;;;12.10;10.40;;;;;;;16.83;82.56;99401.91;430990;1275;142451;-65
2022/08/02 03:32:09;;;;;;;11.10;10.10;;;;;;;16.93;82.92;99395.38;430175;1274;143120;-65
2022/08/02 03:42:17;;;;;;;13.10;10.50;;;;;;;17.11;82.95;99398.84;429716;1274;144002;-65
2022/08/02 03:52:24;;;;;;;11.10;10.10;;;;;;;17.43;83.05;99408.38;433105;1274;142154;-64
2022/08/02 04:02:29;;;;;;;10.40;9.30;;;;;;;18.00;82.88;99416.85;446242;1274;143147;-65
2022/08/02 04:12:35;;;;;;;9.20;8.40;;;;;;;18.73;81.67;99425.52;435946;1273;142186;-66
2022/08/02 04:22:47;;;;;;;9.40;8.50;;;;;;;19.00;80.49;99429.20;446030;1274;144105;-65
2022/08/02 04:32:54;;;;;;;9.40;8.20;;;;;;;19.16;79.97;99436.83;437827;1274;142887;-64
2022/08/02 04:43:00;;;;;;;9.30;8.40;;;;;;;19.34;79.49;99453.19;447089;1273;143456;-65
2022/08/02 04:53:06;;;;;;;11.90;7.80;;;;;;;19.29;79.06;99469.70;437782;1273;142840;-66
2022/08/02 05:03:13;;;;;;;9.80;7.70;;;;;;;19.14;79.22;99480.46;447005;1274;143952;-64
2022/08/02 05:13:19;;;;;;;9.40;7.50;;;;;;;19.09;79.46;99488.38;446919;1273;145472;-64
2022/08/02 05:23:25;;;;;;;11.10;8.30;;;;;;;19.26;79.41;99490.58;446165;1274;144234;-65
2022/08/02 05:33:30;;;;;;;9.10;8.20;;;;;;;19.50;79.13;99504.84;447012;1274;143287;-65
2022/08/02 05:43:36;;;;;;;9.00;8.00;;;;;;;19.47;79.08;99511.58;446579;1274;142969;-66
2022/08/02 05:53:56;;;;;;;9.50;8.60;;;;;;;19.81;78.51;99526.92;446871;1274;142919;-64
2022/08/02 06:04:07;;;;;;;12.30;9.70;;;;;;;19.82;77.89;99541.82;446954;1274;144669;-65
2022/08/02 06:14:13;;;;;;;11.90;10.80;;;;;;;19.91;77.68;99545.70;446301;1273;145489;-65
2022/08/02 06:24:21;;;;;;;13.10;11.80;;;;;;;20.24;77.07;99553.98;446907;1274;142319;-65
2022/08/02 06:34:25;;;;;;;;;;;;;;;20.71;76.34;99563.71;446905;1274;143401;-66
2022/08/02 06:44:31;;;;;;;13.40;12.20;;;;;;;21.04;74.83;99578.90;446475;1274;129338;-66
2022/08/02 06:54:58;;;;;;;14.90;13.40;;;;;;;21.20;74.27;99590.70;434803;1274;143741;-64
2022/08/02 07:05:06;;;;;;;15.30;12.50;;;;;;;22.06;72.74;99590.60;430008;1274;142094;-65
2022/08/02 07:15:12;;;;;;;15.30;11.60;;;;;;;21.98;71.39;99597.84;432110;1274;142457;-65
2022/08/02 07:25:18;;;;;;;14.60;10.70;;;;;;;21.20;71.76;99604.26;430194;1274;143839;-65
2022/08/02 07:35:24;;;;;;;11.10;9.80;;;;;;;21.10;71.74;99605.09;429613;1274;142723;-65
2022/08/02 07:45:34;;;;;;;12.80;9.70;;;;;;;20.83;71.51;99619.41;430477;1274;142653;-65
2022/08/02 07:55:40;;;;;;;14.90;9.70;;;;;;;20.47;71.60;99626.34;430149;1274;144145;-65
2022/08/02 08:05:46;;;;;;;13.30;9.30;;;;;;;20.27;72.02;99631.66;429634;1274;143521;-65
2022/08/02 08:15:52;;;;;;;12.90;9.90;;;;;;;20.32;72.37;99638.36;429841;1274;142146;-64
2022/08/02 08:25:58;;;;;;;12.10;9.40;;;;;;;20.45;72.58;99640.21;429404;1274;162079;-67
2022/08/02 08:36:04;;;;;;;8.80;7.90;;;;;;;20.34;72.67;99649.33;429876;1274;143154;-65
2022/08/02 08:46:18;;;;;;;10.20;8.70;;;;;;;20.01;72.52;99659.80;430452;1274;142939;-66
2022/08/02 08:56:29;;;;;;;12.90;8.00;;;;;;;19.64;72.97;99674.60;429514;1274;143018;-66
2022/08/02 09:06:35;;;;;;;7.80;5.60;;;;;;;19.49;73.10;99687.64;429995;1274;143443;-66
2022/08/02 09:16:42;;;;;;;8.20;6.60;;;;;;;19.29;73.09;99698.63;430687;1274;142695;-66
2022/08/02 09:26:49;;;;;;;8.00;5.70;;;;;;;19.32;73.55;99712.18;429884;1274;142612;-66
2022/08/02 09:36:55;;;;;;;10.10;6.50;;;;;;;19.38;73.64;99716.10;430862;1274;142639;-65
2022/08/02 09:47:13;;;;;;;8.00;5.70;;;;;;;19.63;73.78;99720.34;430072;1274;144937;-65
2022/08/02 09:57:28;;;;;;;6.90;5.10;;;;;;;20.12;73.61;99723.56;429922;1274;143634;-66
2022/08/02 10:07:34;;;;;;;8.10;6.00;;;;;;;20.54;72.99;99732.09;432100;1274;142964;-64
2022/08/02 10:17:41;;;;;;;6.50;5.60;;;;;;;20.95;72.30;99727.41;430405;1274;143194;-64
2022/08/02 10:27:49;;;;;;;12.90;6.10;;;;;;;21.34;71.33;99723.05;430229;1273;145657;-65
2022/08/02 10:38:12;;;;;;;5.50;5.00;;;;;;;21.70;70.34;99717.30;429336;1274;143579;-65
2022/08/02 10:48:18;;;;;;;5.80;3.80;;;;;;;22.23;69.24;99716.71;429949;1274;143348;-65
2022/08/02 10:58:28;;;;;;;5.30;3.90;;;;;;;22.74;67.80;99710.48;429805;1274;142532;-64
2022/08/02 11:08:35;;;;;;;9.40;3.20;;;;;;;23.25;65.74;99707.63;429031;1274;142944;-64
2022/08/02 11:19:05;;;;;;;4.30;3.00;;;;;;;23.54;64.67;99710.08;430392;1274;142315;-65
2022/08/02 11:29:12;;;;;;;2.80;2.30;;;;;;;23.80;62.20;99701.42;429787;1274;392445;-65
2022/08/02 11:39:22;;;;;;;6.50;2.50;;;;;;;24.15;60.93;99701.92;430109;1274;142812;-64
2022/08/02 11:49:29;;;;;;;7.10;2.50;;;;;;;24.44;59.94;99704.88;429823;1274;142462;-66
2022/08/02 11:59:39;;;;;;;4.20;2.40;;;;;;;24.84;58.31;99706.75;430621;1274;143215;-65
2022/08/02 12:09:45;;;;;;;4.20;2.40;;;;;;;24.82;57.36;99713.20;430706;1274;142557;-66
2022/08/02 12:19:50;;;;;;;2.90;2.40;;;;;;;24.92;56.34;99714.39;429859;1274;141493;-64
2022/08/02 12:30:02;;;;;;;3.40;2.50;;;;;;;25.27;55.98;99710.23;430099;1274;141821;-64
2022/08/02 12:40:22;;;;;;;3.40;2.50;;;;;;;25.62;54.76;99710.95;430857;1274;142419;-65
2022/08/02 12:50:33;;;;;;;4.50;2.20;;;;;;;25.90;54.20;99708.58;430409;1274;143626;-66
2022/08/02 13:00:40;;;;;;;6.40;3.30;;;;;;;25.98;53.01;99701.81;431193;1274;142678;-64
2022/08/02 13:10:46;;;;;;;13.50;3.60;;;;;;;26.04;52.34;99699.29;430595;1273;146939;-65
2022/08/02 13:20:52;;;;;;;3.60;2.70;;;;;;;26.02;51.66;99697.48;430032;1274;141354;-65
2022/08/02 13:30:58;;;;;;;11.00;2.70;;;;;;;26.12;51.60;99689.92;430515;1274;142563;-65
2022/08/02 13:41:23;;;;;;;3.10;2.90;;;;;;;26.18;51.50;99688.27;430171;1274;146960;-65
2022/08/02 13:51:29;;;;;;;5.50;3.00;;;;;;;26.43;50.72;99680.60;431388;1274;141777;-67
2022/08/02 14:01:42;;;;;;;6.10;3.50;;;;;;;26.34;49.96;99672.94;430763;1274;142752;-65
2022/08/02 14:11:49;;;;;;;2.60;2.40;;;;;;;26.52;49.47;99668.67;436832;1274;148920;-65
2022/08/02 14:21:54;;;;;;;2.10;2.00;;;;;;;26.76;48.69;99662.48;432885;1274;141964;-64
2022/08/02 14:32:15;;;;;;;3.30;2.70;;;;;;;26.63;48.64;99661.90;435182;1274;143324;-64
2022/08/02 14:42:22;;;;;;;2.50;2.30;;;;;;;26.26;48.97;99656.61;430360;1274;142127;-64
2022/08/02 14:52:28;;;;;;;5.80;2.20;;;;;;;25.82;49.29;99653.00;440131;1273;142076;-65
2022/08/02 15:02:33;;;;;;;7.40;2.40;;;;;;;25.78;49.69;99660.02;446096;1274;142782;-65
2022/08/02 15:12:39;;;;;;;5.10;2.50;;;;;;;25.67;49.29;99657.21;446346;1274;142333;-64
2022/08/02 15:22:45;;;;;;;3.20;2.90;;;;;;;25.76;49.67;99653.02;429203;1273;146636;-62
2022/08/02 15:32:54;;;;;;;2.80;2.10;;;;;;;25.82;49.34;99650.29;432521;1274;140956;-65
2022/08/02 15:43:00;;;;;;;3.70;2.10;;;;;;;25.80;49.34;99646.50;432900;1274;141209;-64
2022/08/02 15:53:05;;;;;;;3.50;2.30;;;;;;;25.70;49.32;99644.70;430886;1274;142596;-65
2022/08/02 16:03:11;;;;;;;5.10;2.70;;;;;;;25.43;49.57;99651.77;431496;1274;146977;-66
2022/08/02 16:23:58;;;;;;;2.30;2.10;;;;;;;24.98;50.15;99654.13;431207;1274;141076;-66
2022/08/02 16:34:08;;;;;;;3.00;2.30;;;;;;;25.09;50.38;99655.84;431935;1274;141490;-66
2022/08/02 16:44:14;;;;;;;2.30;2.10;;;;;;;25.21;50.23;99658.67;430184;1274;142426;-65
2022/08/02 16:54:22;;;;;;;3.80;2.30;;;;;;;25.27;50.10;99655.80;431386;1274;142592;-64
2022/08/02 17:04:31;;;;;;;4.20;2.90;;;;;;;25.43;49.26;99657.74;430782;1274;142096;-65
2022/08/02 17:14:37;;;;;;;3.30;2.00;;;;;;;26.29;48.06;99657.95;430048;1274;187577;-66
2022/08/02 17:24:59;;;;;;;4.40;2.20;;;;;;;25.28;48.32;99659.98;430323;1274;141593;-62
2022/08/02 17:35:06;;;;;;;11.10;2.70;;;;;;;24.73;49.49;99663.05;429651;1274;141917;-66
2022/08/02 17:45:14;;;;;;;2.90;2.40;;;;;;;24.25;50.83;99666.04;430612;1274;142716;-66
2022/08/02 17:55:31;;;;;;;2.30;2.10;;;;;;;23.76;52.32;99671.13;431033;1274;141608;-65
2022/08/02 18:05:38;;;;;;;2.60;2.40;;;;;;;23.27;53.53;99677.47;438495;1274;141901;-66
2022/08/02 18:16:00;;;;;;;8.70;2.90;;;;;;;22.74;55.15;99680.68;446914;1273;142610;-66
2022/08/02 18:26:06;;;;;;;9.20;3.90;;;;;;;22.13;56.92;99685.66;443918;1274;143153;-64
2022/08/02 18:36:13;;;;;;;16.20;4.10;;;;;;;21.66;58.35;99690.81;432969;1274;141558;-65
2022/08/02 18:46:30;;;;;;;14.20;4.60;;;;;;;21.14;59.97;99697.45;435536;1273;143518;-66
2022/08/02 18:56:35;;;;;;;18.30;7.10;;;;;;;20.69;61.36;99707.14;446031;1274;143557;-66
2022/08/02 19:06:44;;;;;;;15.00;8.70;;;;;;;20.25;62.81;99714.15;433144;1274;142256;-66
2022/08/02 19:16:56;;;;;;;24.70;14.40;;;;;;;19.90;63.81;99717.14;429804;1273;142430;-66
2022/08/02 19:27:02;;;;;;;36.70;21.90;;;;;;;19.51;65.08;99725.60;430978;1274;143018;-66
2022/08/02 19:37:19;;;;;;;29.70;20.40;;;;;;;19.18;66.22;99722.98;430705;1274;201816;-65
2022/08/02 19:47:25;;;;;;;38.90;24.20;;;;;;;18.86;67.30;99728.30;430082;1273;142646;-64
2022/08/02 19:57:42;;;;;;;27.60;23.40;;;;;;;18.56;68.33;99724.59;430439;1272;148813;-66
2022/08/02 20:07:48;;;;;;;29.30;20.90;;;;;;;18.27;69.08;99725.91;430911;1274;143148;-65
2022/08/02 20:18:01;;;;;;;23.10;18.00;;;;;;;18.05;69.87;99726.05;429805;1274;142804;-66
2022/08/02 20:28:07;;;;;;;30.00;22.90;;;;;;;17.81;70.48;99728.77;430319;1274;142226;-66
2022/08/02 20:38:13;;;;;;;14.50;11.00;;;;;;;17.58;71.09;99735.05;429985;1274;143146;-64
2022/08/02 20:48:19;;;;;;;19.10;16.90;;;;;;;17.41;72.11;99738.70;432658;1274;142331;-65
2022/08/02 20:58:34;;;;;;;24.90;17.10;;;;;;;17.22;72.71;99735.45;431661;1274;142908;-66
2022/08/02 21:08:40;;;;;;;21.70;15.40;;;;;;;17.00;72.90;99733.27;431497;1274;143128;-63
2022/08/02 21:18:54;;;;;;;17.60;12.20;;;;;;;16.81;73.46;99731.94;431179;1274;143904;-65
2022/08/02 21:29:04;;;;;;;14.80;10.60;;;;;;;16.64;73.92;99731.46;431021;1274;143352;-65
2022/08/02 21:39:11;;;;;;;11.70;10.00;;;;;;;16.49;74.68;99737.71;432130;1274;143840;-65
2022/08/02 21:49:16;;;;;;;19.50;10.30;;;;;;;16.35;75.10;99735.70;431926;1274;144832;-65
2022/08/02 21:59:24;;;;;;;14.80;9.10;;;;;;;16.19;75.34;99737.23;430284;1274;186868;-65
2022/08/02 22:09:31;;;;;;;10.80;7.80;;;;;;;16.04;75.72;99740.13;434035;1274;143303;-66
2022/08/02 22:19:48;;;;;;;;;;;;;;;15.91;76.18;99742.36;430844;1273;142391;-66
2022/08/02 22:29:58;;;;;;;12.10;7.20;;;;;;;15.80;76.66;99744.04;430981;1274;127824;-65
2022/08/02 22:40:08;;;;;;;10.30;8.20;;;;;;;15.70;77.08;99746.08;431227;1274;142481;-64
2022/08/02 22:50:14;;;;;;;8.90;7.50;;;;;;;15.58;77.24;99743.71;430765;1273;142674;-65
2022/08/02 23:00:20;;;;;;;11.00;8.30;;;;;;;15.48;77.29;99745.95;432329;1274;142114;-65
2022/08/02 23:10:26;;;;;;;9.80;8.60;;;;;;;15.37;77.61;99749.44;431260;1274;142508;-65
2022/08/02 23:20:33;;;;;;;10.30;7.70;;;;;;;15.31;78.26;99747.49;429896;1274;185174;-65
2022/08/02 23:30:38;;;;;;;7.40;6.70;;;;;;;15.21;78.35;99750.27;431798;1274;322817;-65
2022/08/02 23:40:44;;;;;;;10.40;7.80;;;;;;;15.08;78.37;99743.66;431584;1274;142516;-66
2022/08/02 23:50:50;;;;;;;8.20;7.20;;;;;;;15.01;78.78;99742.13;432796;1274;146837;-65
